WetterOnline ( https://www.wetteronline.at )

Wetter aktuell Lübben

Aktuelles Wetter: Lindenberg b. Beeskow (104m)

6-stündlich | Neueste Meldungen
Ortszeit Temperatur Wetter
Sa, 13.07. 20:00 21.8° C wolkenlos
Sa, 13.07. 14:00 18.9° C bewölkt
Sa, 13.07. 8:00 14.1° C leichter Regen
Sa, 13.07. 2:00 17.9° C bewölkt
Fr, 12.07. 20:00 18.7° C leichter Regen
Fr, 12.07. 14:00 24.7° C bedeckt
Fr, 12.07. 8:00 20.7° C wolkig
Fr, 12.07. 2:00 20.1° C fast wolkenlos
Ortszeit Temperatur Wetter
Sa, 13.07. 23:30 16.5° C wolkig
Sa, 13.07. 23:20 16.5° C wolkig
Sa, 13.07. 23:10 16.5° C bedeckt
Sa, 13.07. 23:00 16.5° C wolkig
Sa, 13.07. 22:50 16.5° C wolkig
Sa, 13.07. 22:40 16.5° C bedeckt
Sa, 13.07. 22:30 17.2° C wolkig
Sa, 13.07. 22:00 17.6° C leicht bewölkt
Sa, 13.07. 21:30 18.3° C leicht bewölkt
Sa, 13.07. 21:00 19.6° C fast wolkenlos
Sa, 13.07. 20:30 20.1° C fast wolkenlos
Ortszeit Relative Feuchte Sichtweite
Sa, 13.07. 20:00 48% >70 km
Sa, 13.07. 14:00 65% 50 km
Sa, 13.07. 8:00 92% 19 km
Sa, 13.07. 2:00 97% 18 km
Fr, 12.07. 20:00 96% 50 km
Fr, 12.07. 14:00 71% 55 km
Fr, 12.07. 8:00 83% 40 km
Fr, 12.07. 2:00 89% 45 km
Ortszeit Relative Feuchte Sichtweite
Sa, 13.07. 23:30 73% >70 km
Sa, 13.07. 23:20 73% -
Sa, 13.07. 23:10 73% -
Sa, 13.07. 23:00 75% >70 km
Sa, 13.07. 22:50 75% -
Sa, 13.07. 22:40 76% -
Sa, 13.07. 22:30 69% 55 km
Sa, 13.07. 22:00 67% 30 km
Sa, 13.07. 21:30 64% >70 km
Sa, 13.07. 21:00 62% >70 km
Sa, 13.07. 20:30 59% >70 km
Ortszeit Niederschlagsmenge Niederschlagsart
Sa, 13.07. 20:00 1 l/m2 in 12 Std. -
Sa, 13.07. 14:00 1 l/m2 in 6 Std. Regen
Sa, 13.07. 8:00 0.9 l/m2 in 12 Std. Regen
Sa, 13.07. 2:00 0.1 l/m2 in 6 Std. Regen
Fr, 12.07. 20:00 20 l/m2 in 12 Std. Regen
Fr, 12.07. 14:00 0.0 l/m2 in 6 Std. -
Fr, 12.07. 8:00 0.0 l/m2 in 12 Std. -
Fr, 12.07. 2:00 0.0 l/m2 in 6 Std. -
Ortszeit Niederschlagsmenge Niederschlagsart
Sa, 13.07. 23:30 0.0 l/m2 in 30 Min -
Sa, 13.07. 23:20 keine Meldung -
Sa, 13.07. 23:10 keine Meldung -
Sa, 13.07. 23:00 0.0 l/m2 in 1 Std. -
Sa, 13.07. 22:50 keine Meldung -
Sa, 13.07. 22:40 keine Meldung -
Sa, 13.07. 22:30 0.0 l/m2 in 30 Min -
Sa, 13.07. 22:00 0.0 l/m2 in 1 Std. -
Sa, 13.07. 21:30 0.0 l/m2 in 30 Min -
Sa, 13.07. 21:00 0.0 l/m2 in 1 Std. -
Sa, 13.07. 20:30 0.0 l/m2 in 30 Min -
Ortszeit Stärke Spitze Richtung
km/h Bft. km/h Grad Sektor
Sa, 13.07. 20:00 11 2 32 260° W
Sa, 13.07. 14:00 17 3 39 240° SW
Sa, 13.07. 8:00 17 3 41 270° W
Sa, 13.07. 2:00 4 1 18 160° S
Fr, 12.07. 20:00 11 2 68 130° SO
Fr, 12.07. 14:00 11 2 29 70° O
Fr, 12.07. 8:00 13 3 20 110° O
Fr, 12.07. 2:00 7 2 15 100° O
Ortszeit Stärke Spitze Richtung
km/h Bft. km/h Grad Sektor
Sa, 13.07. 23:30 6 1 7 230° SW
Sa, 13.07. 23:20 6 1 - 230° SW
Sa, 13.07. 23:10 6 1 - 220° SW
Sa, 13.07. 23:00 4 1 7 220° SW
Sa, 13.07. 22:50 4 1 - 220° SW
Sa, 13.07. 22:40 4 1 - 230° SW
Sa, 13.07. 22:30 4 1 7 240° SW
Sa, 13.07. 22:00 6 1 7 240° SW
Sa, 13.07. 21:30 6 1 7 260° W
Sa, 13.07. 21:00 7 2 18 250° W
Sa, 13.07. 20:30 7 2 18 260° W
Ortszeit Untergrenze Bedeckung Gattung
total tief tief mittel hoch
Sa, 13.07. 20:00 - 0/8 0/8 - - -
Sa, 13.07. 14:00 1050 m 7/8 7/8 - - -
Sa, 13.07. 8:00 420 m 7/8 6/8 - - -
Sa, 13.07. 2:00 1290 m 8/8 4/8 - - -
Fr, 12.07. 20:00 3000 m 8/8 8/8 - - -
Fr, 12.07. 14:00 5100 m 8/8 8/8 - - -
Fr, 12.07. 8:00 2100 m 6/8 6/8 - - -
Fr, 12.07. 2:00 1800 m 1/8 1/8 - - -
Ortszeit Bedeckungsgrad in Achtel und Wolkenuntergrenze
Sa, 13.07. 23:30 8(7500m) 8(8400m)
Sa, 13.07. 23:20 8(7500m) 8(8400m)
Sa, 13.07. 23:10 8
Sa, 13.07. 23:00 8(7500m)
Sa, 13.07. 22:50 8(7500m)
Sa, 13.07. 22:40 8
Sa, 13.07. 22:30 7(7800m) 7(8400m)
Sa, 13.07. 22:00 3(9000m)
Sa, 13.07. 21:30 1(7800m) 3(9000m)
Sa, 13.07. 21:00 1(9000m)
Sa, 13.07. 20:30 1(9000m)
Ortszeit Luftdruck NN (hPa) Tendenz (hPa in 3 Std.)
Sa, 13.07. 20:00 1012 + 0,2
Sa, 13.07. 14:00 1013 + 0,6
Sa, 13.07. 8:00 1011 + 2,6
Sa, 13.07. 2:00 1008 - 0,6
Fr, 12.07. 20:00 1008 - 1,3
Fr, 12.07. 14:00 1011 - 2,6
Fr, 12.07. 8:00 1015 - 0,5
Fr, 12.07. 2:00 1016 - 0,4
Ortszeit Luftdruck NN (hPa) Tendenz (hPa in 3 Std.)
Sa, 13.07. 23:30 1013 + 0,5
Sa, 13.07. 23:20 1013 keine Meldung
Sa, 13.07. 23:10 1013 keine Meldung
Sa, 13.07. 23:00 1013 + 0,6
Sa, 13.07. 22:50 1013 keine Meldung
Sa, 13.07. 22:40 1013 keine Meldung
Sa, 13.07. 22:30 1013 + 0,6
Sa, 13.07. 22:00 1013 + 0,5
Sa, 13.07. 21:30 1013 + 0,5
Sa, 13.07. 21:00 1013 + 0,2
Sa, 13.07. 20:30 1013 + 0,2
Ortszeit Schneehöhe (cm)
Sa, 13.07. 20:00 0
Sa, 13.07. 14:00 0
Sa, 13.07. 8:00 0
Sa, 13.07. 2:00 0
Fr, 12.07. 20:00 0
Fr, 12.07. 14:00 0
Fr, 12.07. 8:00 0
Fr, 12.07. 2:00 0
Ortszeit Schneehöhe (cm)
Sa, 13.07. 23:30 0
Sa, 13.07. 23:20 0
Sa, 13.07. 23:10 -
Sa, 13.07. 23:00 0
Sa, 13.07. 22:50 0
Sa, 13.07. 22:40 -
Sa, 13.07. 22:30 0
Sa, 13.07. 22:00 0
Sa, 13.07. 21:30 0
Sa, 13.07. 21:00 0
Sa, 13.07. 20:30 0
Link zu dieser Seite / Seite empfehlen

Das Wetter in ...